createdAt,value
2022-12-26T00:01:46.634Z,1.30
2022-12-26T00:04:51.869Z,1.30
2022-12-26T00:07:40.847Z,1.20
2022-12-26T00:10:28.513Z,1.10
2022-12-26T00:13:38.798Z,1.10
2022-12-26T00:16:25.014Z,1.00
2022-12-26T00:19:14.118Z,1.00
2022-12-26T00:22:01.932Z,1.00
2022-12-26T00:24:49.490Z,1.00
2022-12-26T00:27:36.983Z,1.00
2022-12-26T00:30:25.906Z,1.10
2022-12-26T00:33:13.651Z,1.10
2022-12-26T00:36:11.027Z,1.20
2022-12-26T00:39:01.844Z,1.20
2022-12-26T00:41:49.467Z,1.30
2022-12-26T00:44:37.149Z,1.30
2022-12-26T00:47:25.093Z,1.40
2022-12-26T00:50:15.778Z,1.40
2022-12-26T00:53:03.959Z,1.40
2022-12-26T00:55:53.019Z,1.40
2022-12-26T00:58:42.316Z,1.50
2022-12-26T01:01:31.347Z,1.50
2022-12-26T01:04:19.351Z,1.50
2022-12-26T01:07:06.940Z,1.50
2022-12-26T01:09:54.641Z,1.60
2022-12-26T01:12:42.497Z,1.60
2022-12-26T01:15:30.055Z,1.60
2022-12-26T01:18:18.117Z,1.60
2022-12-26T01:21:11.623Z,1.60
2022-12-26T01:23:59.600Z,1.70
2022-12-26T01:26:47.352Z,1.70
2022-12-26T01:29:35.188Z,1.70
2022-12-26T01:32:23.733Z,1.70
2022-12-26T01:35:11.384Z,1.60
2022-12-26T01:37:59.249Z,1.60
2022-12-26T01:40:47.245Z,1.50
2022-12-26T01:43:49.917Z,1.40
2022-12-26T01:46:44.793Z,1.40
2022-12-26T01:49:51.023Z,1.40
2022-12-26T01:52:47.093Z,1.30
2022-12-26T01:55:34.819Z,1.20
2022-12-26T01:58:34.256Z,1.20
2022-12-26T02:01:27.713Z,1.20
2022-12-26T02:04:45.259Z,1.10
2022-12-26T02:07:36.403Z,1.00
2022-12-26T02:10:26.925Z,1.00
2022-12-26T02:13:15.757Z,1.00
2022-12-26T02:16:07.457Z,1.00
2022-12-26T02:18:55.310Z,1.00
2022-12-26T02:22:24.555Z,1.00
2022-12-26T02:26:17.372Z,1.00
2022-12-26T02:29:16.836Z,1.00
2022-12-26T02:32:50.709Z,1.00
2022-12-26T02:35:48.520Z,1.00
2022-12-26T02:39:45.106Z,1.00
2022-12-26T02:42:36.065Z,0.90
2022-12-26T02:46:02.694Z,0.90
2022-12-26T02:49:11.213Z,0.90
2022-12-26T02:52:38.124Z,0.90
2022-12-26T02:55:47.922Z,0.90
2022-12-26T02:59:19.991Z,0.90
2022-12-26T03:03:19.884Z,0.90
2022-12-26T03:06:36.389Z,0.90
2022-12-26T03:09:52.346Z,0.90
2022-12-26T03:13:14.630Z,0.80
2022-12-26T03:16:29.473Z,0.70
2022-12-26T03:19:19.219Z,0.70
2022-12-26T03:22:29.220Z,0.70
2022-12-26T03:26:04.372Z,0.70
2022-12-26T03:28:52.157Z,0.70
2022-12-26T03:31:39.665Z,0.70
2022-12-26T03:34:28.711Z,0.70
2022-12-26T03:37:57.941Z,0.70
2022-12-26T03:41:19.256Z,0.70
2022-12-26T03:44:46.220Z,0.80
2022-12-26T03:48:31.687Z,0.90
2022-12-26T03:51:52.473Z,0.90
2022-12-26T03:55:38.526Z,0.90
2022-12-26T03:58:56.784Z,0.90
2022-12-26T04:02:07.828Z,0.90
2022-12-26T04:05:18.988Z,0.90
2022-12-26T04:08:40.797Z,0.90
2022-12-26T04:11:47.870Z,1.00
2022-12-26T04:15:13.020Z,1.00
2022-12-26T04:18:34.304Z,0.90
2022-12-26T04:22:08.360Z,0.90
2022-12-26T04:25:48.764Z,0.90
2022-12-26T04:28:57.431Z,0.90
2022-12-26T04:32:18.405Z,0.80
2022-12-26T04:35:39.370Z,0.80
2022-12-26T04:38:54.473Z,0.80
2022-12-26T04:42:02.781Z,0.80
2022-12-26T04:44:51.128Z,0.80
2022-12-26T04:47:58.861Z,0.70
2022-12-26T04:50:53.763Z,0.70
2022-12-26T04:53:41.369Z,0.80
2022-12-26T04:56:29.085Z,0.80
2022-12-26T04:59:18.149Z,0.80
2022-12-26T05:02:24.363Z,0.80
2022-12-26T05:05:30.495Z,0.80
2022-12-26T05:08:55.431Z,0.80
2022-12-26T05:11:47.337Z,0.80
2022-12-26T05:14:36.563Z,0.80
2022-12-26T05:17:43.160Z,0.80
2022-12-26T05:20:49.813Z,0.80
2022-12-26T05:23:56.786Z,0.90
2022-12-26T05:27:03.408Z,0.90
2022-12-26T05:29:51.441Z,0.90
2022-12-26T05:32:57.740Z,1.00
2022-12-26T05:35:45.489Z,1.00
2022-12-26T05:38:33.200Z,1.00
2022-12-26T05:41:20.969Z,0.90
2022-12-26T05:44:09.973Z,0.90
2022-12-26T05:46:58.010Z,0.90
2022-12-26T05:49:45.571Z,0.80
2022-12-26T05:52:33.229Z,0.80
2022-12-26T05:55:20.928Z,0.80
2022-12-26T05:58:08.515Z,0.80
2022-12-26T06:01:07.071Z,0.70
2022-12-26T06:03:58.010Z,0.70
2022-12-26T06:06:45.915Z,0.70
2022-12-26T06:09:33.666Z,0.80
2022-12-26T06:12:21.263Z,0.80
2022-12-26T06:15:10.315Z,0.80
2022-12-26T06:17:58.173Z,0.80
2022-12-26T06:20:45.811Z,0.80
2022-12-26T06:23:35.099Z,0.90
2022-12-26T06:26:22.799Z,0.90
2022-12-26T06:29:10.677Z,0.90
2022-12-26T06:31:58.302Z,0.90
2022-12-26T06:34:48.045Z,0.90
2022-12-26T06:37:35.630Z,1.00
2022-12-26T06:40:23.286Z,1.00
2022-12-26T06:43:14.006Z,1.00
2022-12-26T06:46:07.502Z,1.00
2022-12-26T06:48:55.325Z,1.00
2022-12-26T06:51:45.197Z,1.00
2022-12-26T06:54:33.381Z,1.00
2022-12-26T06:57:21.075Z,1.00
2022-12-26T07:00:10.166Z,1.10
2022-12-26T07:02:57.873Z,1.00
2022-12-26T07:05:45.767Z,1.10
2022-12-26T07:08:34.545Z,1.10
2022-12-26T07:11:26.157Z,1.10
2022-12-26T07:14:14.788Z,1.10
2022-12-26T07:17:02.643Z,1.10
2022-12-26T07:19:50.249Z,1.10
2022-12-26T07:22:40.782Z,1.10
2022-12-26T07:25:28.364Z,1.10
2022-12-26T07:28:17.011Z,1.20
2022-12-26T07:31:05.651Z,1.20
2022-12-26T07:33:56.257Z,1.30
2022-12-26T07:36:43.920Z,1.30
2022-12-26T07:39:31.836Z,1.40
2022-12-26T07:42:21.722Z,1.40
2022-12-26T07:45:10.175Z,1.40
2022-12-26T07:47:59.663Z,1.50
2022-12-26T07:50:49.550Z,1.50
2022-12-26T07:53:37.628Z,1.60
2022-12-26T07:56:25.441Z,1.60
2022-12-26T07:59:18.310Z,1.70
2022-12-26T08:02:06.344Z,1.70
2022-12-26T08:04:54.263Z,1.60
2022-12-26T08:07:42.430Z,1.70
2022-12-26T08:10:30.087Z,1.70
2022-12-26T08:13:18.211Z,1.60
2022-12-26T08:16:08.914Z,1.60
2022-12-26T08:18:56.627Z,1.60
2022-12-26T08:21:44.263Z,1.60
2022-12-26T08:24:31.916Z,1.70
2022-12-26T08:27:19.635Z,1.60
2022-12-26T08:30:08.605Z,1.60
2022-12-26T08:32:56.300Z,1.70
2022-12-26T08:35:44.237Z,1.80
2022-12-26T08:38:33.746Z,1.90
2022-12-26T08:41:21.736Z,2.00
2022-12-26T08:44:27.485Z,2.00
2022-12-26T08:47:16.394Z,2.00
2022-12-26T08:50:04.316Z,2.10
2022-12-26T08:52:51.911Z,2.20
2022-12-26T08:55:42.647Z,2.30
2022-12-26T08:58:31.113Z,2.40
2022-12-26T09:01:26.151Z,2.30
2022-12-26T09:04:14.855Z,2.20
2022-12-26T09:07:02.467Z,2.30
2022-12-26T09:09:50.139Z,2.40
2022-12-26T09:12:37.635Z,2.30
2022-12-26T09:15:25.337Z,2.20
2022-12-26T09:18:12.815Z,2.20
2022-12-26T09:21:02.721Z,2.20
2022-12-26T09:23:50.940Z,2.20
2022-12-26T09:26:41.105Z,2.20
2022-12-26T09:29:28.796Z,2.30
2022-12-26T09:32:16.400Z,2.40
2022-12-26T09:35:05.193Z,2.40
2022-12-26T09:37:52.875Z,2.50
2022-12-26T09:40:59.080Z,2.60
2022-12-26T09:44:15.446Z,2.70
2022-12-26T09:47:38.062Z,2.70
2022-12-26T09:50:40.963Z,2.80
2022-12-26T09:53:44.231Z,2.80
2022-12-26T09:57:01.918Z,2.90
2022-12-26T10:00:01.555Z,2.90
2022-12-26T10:03:00.786Z,3.00
2022-12-26T10:06:24.224Z,3.10
2022-12-26T10:09:39.536Z,3.10
2022-12-26T10:12:53.971Z,3.20
2022-12-26T10:15:47.021Z,3.10
2022-12-26T10:19:03.226Z,3.20
2022-12-26T10:22:15.821Z,3.20
2022-12-26T10:25:16.473Z,3.40
2022-12-26T10:28:09.021Z,3.50
2022-12-26T10:31:01.840Z,3.70
2022-12-26T10:34:44.554Z,3.80
2022-12-26T10:37:53.793Z,3.70
2022-12-26T10:40:47.180Z,3.70
2022-12-26T10:43:35.941Z,3.80
2022-12-26T10:46:56.178Z,3.70
2022-12-26T10:49:47.583Z,3.60
2022-12-26T10:52:44.120Z,3.80
2022-12-26T10:55:35.480Z,3.90
2022-12-26T10:58:33.924Z,3.90
2022-12-26T11:01:47.760Z,3.90
2022-12-26T11:05:10.459Z,3.90
2022-12-26T11:08:27.378Z,3.90
2022-12-26T11:11:46.267Z,4.00
2022-12-26T11:14:44.752Z,4.10
2022-12-26T11:17:40.585Z,4.20
2022-12-26T11:20:31.457Z,4.20
2022-12-26T11:23:34.184Z,4.20
2022-12-26T11:26:31.091Z,4.10
2022-12-26T11:29:24.553Z,4.20
2022-12-26T11:32:20.500Z,4.20
2022-12-26T11:35:20.406Z,4.20
2022-12-26T11:38:39.091Z,4.30
2022-12-26T11:41:41.797Z,4.40
2022-12-26T11:44:34.896Z,4.30
2022-12-26T11:47:28.450Z,4.30
2022-12-26T11:50:21.751Z,4.30
2022-12-26T11:53:18.940Z,4.30
2022-12-26T11:56:09.008Z,4.20
2022-12-26T11:59:19.176Z,4.20
2022-12-26T12:02:32.726Z,4.20
2022-12-26T12:05:31.976Z,4.20
2022-12-26T12:08:37.734Z,4.30
2022-12-26T12:11:54.713Z,4.30
2022-12-26T12:15:24.265Z,4.50
2022-12-26T12:18:45.702Z,4.40
2022-12-26T12:22:13.307Z,4.50
2022-12-26T12:25:40.236Z,4.50
2022-12-26T12:28:49.568Z,4.40
2022-12-26T12:32:02.737Z,4.30
2022-12-26T12:35:20.556Z,4.20
2022-12-26T12:38:50.259Z,4.20
2022-12-26T12:42:31.157Z,4.20
2022-12-26T12:45:32.625Z,4.30
2022-12-26T12:48:54.992Z,4.50
2022-12-26T12:52:13.454Z,4.60
2022-12-26T12:55:28.727Z,4.70
2022-12-26T12:58:46.215Z,4.60
2022-12-26T13:01:45.066Z,4.60
2022-12-26T13:04:45.872Z,4.50
2022-12-26T13:07:47.378Z,4.50
2022-12-26T13:10:51.979Z,4.50
2022-12-26T13:14:01.748Z,4.60
2022-12-26T13:17:16.154Z,4.70
2022-12-26T13:20:25.187Z,4.90
2022-12-26T13:23:58.948Z,4.90
2022-12-26T13:27:05.316Z,5.00
2022-12-26T13:29:53.959Z,5.00
2022-12-26T13:32:44.879Z,5.00
2022-12-26T13:36:07.001Z,5.00
2022-12-26T13:39:01.572Z,5.00
2022-12-26T13:42:19.721Z,5.00
2022-12-26T13:45:37.687Z,5.00
2022-12-26T13:48:29.694Z,5.10
2022-12-26T13:51:50.420Z,5.00
2022-12-26T13:54:48.314Z,5.00
2022-12-26T13:57:45.964Z,5.10
2022-12-26T14:00:48.352Z,5.10
2022-12-26T14:03:55.665Z,5.10
2022-12-26T14:07:29.823Z,5.10
2022-12-26T14:10:49.025Z,5.10
2022-12-26T14:13:55.167Z,5.00
2022-12-26T14:17:10.304Z,5.10
2022-12-26T14:20:08.398Z,5.00
2022-12-26T14:23:46.548Z,5.00
2022-12-26T14:26:52.066Z,5.00
2022-12-26T14:29:42.692Z,5.00
2022-12-26T14:33:30.378Z,5.00
2022-12-26T14:36:50.168Z,5.00
2022-12-26T14:40:27.516Z,5.00
2022-12-26T14:43:17.948Z,5.00
2022-12-26T14:46:30.543Z,4.90
2022-12-26T14:49:40.877Z,4.90
2022-12-26T14:52:40.751Z,4.90
2022-12-26T14:55:56.399Z,4.90
2022-12-26T14:58:53.000Z,4.90
2022-12-26T15:01:50.403Z,4.90
2022-12-26T15:04:44.040Z,4.80
2022-12-26T15:07:46.911Z,4.80
2022-12-26T15:11:08.145Z,4.80
2022-12-26T15:14:34.125Z,4.80
2022-12-26T15:17:53.306Z,4.80
2022-12-26T15:21:22.229Z,4.80
2022-12-26T15:25:20.798Z,4.80
2022-12-26T15:28:23.103Z,4.80
2022-12-26T15:31:38.075Z,4.90
2022-12-26T15:35:01.767Z,4.90
2022-12-26T15:38:19.255Z,4.90
2022-12-26T15:41:26.711Z,5.00
2022-12-26T15:44:37.800Z,5.00
2022-12-26T15:47:49.270Z,5.10
2022-12-26T15:54:49.100Z,5.20
2022-12-26T15:57:50.511Z,5.30
2022-12-26T16:00:53.309Z,5.30
2022-12-26T16:04:18.314Z,5.40
2022-12-26T16:08:02.541Z,5.50
2022-12-26T16:11:08.561Z,5.70
2022-12-26T16:14:05.345Z,5.90
2022-12-26T16:16:53.191Z,6.10
2022-12-26T16:19:44.325Z,6.20
2022-12-26T16:22:45.915Z,6.30
2022-12-26T16:25:37.844Z,6.40
2022-12-26T16:28:32.690Z,6.40
2022-12-26T16:31:25.700Z,6.60
2022-12-26T16:34:21.490Z,6.80
2022-12-26T16:37:18.465Z,6.90
2022-12-26T16:40:16.086Z,7.00
2022-12-26T16:43:22.143Z,7.10
2022-12-26T16:46:13.559Z,7.20
2022-12-26T16:49:02.397Z,7.40
2022-12-26T16:51:51.933Z,7.40
2022-12-26T16:54:42.525Z,7.50
2022-12-26T16:57:30.264Z,7.50
2022-12-26T17:00:21.351Z,7.50
2022-12-26T17:03:51.304Z,7.50
2022-12-26T17:07:05.287Z,7.60
2022-12-26T17:10:00.487Z,7.70
2022-12-26T17:12:48.954Z,7.80
2022-12-26T17:15:54.371Z,7.80
2022-12-26T17:18:48.073Z,7.80
2022-12-26T17:21:35.907Z,7.90
2022-12-26T17:24:27.689Z,7.90
2022-12-26T17:27:25.903Z,7.90
2022-12-26T17:30:32.411Z,7.90
2022-12-26T17:33:29.309Z,7.90
2022-12-26T17:39:27.727Z,7.80
2022-12-26T17:42:15.815Z,7.80
2022-12-26T17:45:03.540Z,7.70
2022-12-26T17:47:53.991Z,7.80
2022-12-26T17:50:45.855Z,7.80
2022-12-26T17:53:36.668Z,7.90
2022-12-26T17:56:27.339Z,7.90
2022-12-26T17:59:15.158Z,7.90
2022-12-26T18:02:02.753Z,7.90
2022-12-26T18:04:51.162Z,8.00
2022-12-26T18:07:39.370Z,8.10
2022-12-26T18:10:34.546Z,8.10
2022-12-26T18:13:22.136Z,8.20
2022-12-26T18:16:17.459Z,8.20
2022-12-26T18:19:05.153Z,8.30
2022-12-26T18:21:52.669Z,8.40
2022-12-26T18:24:40.531Z,8.40
2022-12-26T18:27:33.622Z,8.40
2022-12-26T18:30:24.926Z,8.40
2022-12-26T18:33:13.785Z,8.50
2022-12-26T18:36:07.239Z,8.50
2022-12-26T18:38:55.056Z,8.50
2022-12-26T18:41:43.523Z,8.60
2022-12-26T18:44:31.124Z,8.60
2022-12-26T18:47:21.920Z,8.60
2022-12-26T18:50:15.831Z,8.60
2022-12-26T18:53:03.647Z,8.60
2022-12-26T18:55:51.373Z,8.50
2022-12-26T18:58:38.921Z,8.50
2022-12-26T19:01:26.966Z,8.40
2022-12-26T19:04:17.922Z,8.40
2022-12-26T19:07:05.461Z,8.50
2022-12-26T19:09:55.832Z,8.50
2022-12-26T19:12:44.234Z,8.50
2022-12-26T19:15:36.538Z,8.60
2022-12-26T19:18:24.092Z,8.60
2022-12-26T19:21:16.543Z,8.70
2022-12-26T19:24:04.318Z,8.70
2022-12-26T19:26:51.861Z,8.70
2022-12-26T19:29:39.369Z,8.70
2022-12-26T19:32:27.016Z,8.70
2022-12-26T19:35:16.160Z,8.80
2022-12-26T19:38:04.029Z,8.70
2022-12-26T19:40:51.511Z,8.70
2022-12-26T19:43:40.797Z,8.70
2022-12-26T19:46:28.984Z,8.70
2022-12-26T19:49:16.570Z,8.70
2022-12-26T19:52:04.432Z,8.70
2022-12-26T19:54:52.190Z,8.70
2022-12-26T19:57:39.705Z,8.70
2022-12-26T20:00:27.243Z,8.70
2022-12-26T20:03:14.774Z,8.70
2022-12-26T20:06:20.053Z,8.60
2022-12-26T20:09:11.381Z,8.70
2022-12-26T20:11:58.941Z,8.70
2022-12-26T20:14:46.508Z,8.60
2022-12-26T20:17:34.245Z,8.60
2022-12-26T20:20:22.580Z,8.60
2022-12-26T20:23:10.113Z,8.60
2022-12-26T20:26:07.016Z,8.60
2022-12-26T20:29:01.900Z,8.60
2022-12-26T20:31:50.039Z,8.60
2022-12-26T20:34:37.839Z,8.60
2022-12-26T20:37:26.310Z,8.50
2022-12-26T20:40:13.902Z,8.50
2022-12-26T20:43:01.457Z,8.50
2022-12-26T20:45:48.997Z,8.40
2022-12-26T20:48:37.320Z,8.40
2022-12-26T20:51:36.579Z,8.40
2022-12-26T20:54:26.265Z,8.40
2022-12-26T20:57:13.734Z,8.40
2022-12-26T21:00:01.301Z,8.30
2022-12-26T21:02:49.017Z,8.30
2022-12-26T21:05:36.832Z,8.30
2022-12-26T21:08:24.375Z,8.30
2022-12-26T21:11:20.220Z,8.30
2022-12-26T21:14:15.527Z,8.30
2022-12-26T21:17:03.079Z,8.30
2022-12-26T21:19:50.630Z,8.30
2022-12-26T21:22:38.160Z,8.30
2022-12-26T21:25:25.779Z,8.20
2022-12-26T21:28:13.320Z,8.20
2022-12-26T21:31:02.038Z,8.20
2022-12-26T21:33:49.779Z,8.10
2022-12-26T21:36:39.132Z,8.10
2022-12-26T21:39:26.564Z,8.10
2022-12-26T21:42:14.458Z,8.00
2022-12-26T21:45:02.212Z,8.00
2022-12-26T21:47:49.796Z,8.00
2022-12-26T21:50:37.682Z,8.00
2022-12-26T21:53:25.263Z,8.00
2022-12-26T21:56:16.379Z,8.00
2022-12-26T21:59:22.559Z,7.90
2022-12-26T22:02:34.664Z,7.90
2022-12-26T22:05:27.002Z,7.90
2022-12-26T22:08:15.287Z,7.80
2022-12-26T22:11:21.249Z,7.80
2022-12-26T22:14:08.794Z,7.90
2022-12-26T22:16:57.817Z,7.90
2022-12-26T22:19:45.316Z,7.80
2022-12-26T22:22:32.914Z,7.80
2022-12-26T22:25:20.535Z,7.80
2022-12-26T22:28:08.111Z,7.80
2022-12-26T22:30:55.746Z,7.80
2022-12-26T22:33:43.284Z,7.80
2022-12-26T22:36:33.577Z,7.80
2022-12-26T22:39:21.068Z,7.80
2022-12-26T22:42:08.592Z,7.80
2022-12-26T22:44:57.470Z,7.80
2022-12-26T22:47:44.973Z,7.80
2022-12-26T22:50:32.550Z,7.80
2022-12-26T22:53:23.452Z,7.70
2022-12-26T22:56:12.412Z,7.70
2022-12-26T22:59:00.845Z,7.60
2022-12-26T23:01:48.530Z,7.50
2022-12-26T23:04:36.871Z,7.50
2022-12-26T23:07:25.318Z,7.50
2022-12-26T23:10:22.921Z,7.50
2022-12-26T23:13:15.769Z,7.50
2022-12-26T23:16:37.839Z,7.50
2022-12-26T23:20:01.910Z,7.50
2022-12-26T23:22:50.095Z,7.50
2022-12-26T23:25:39.036Z,7.60
2022-12-26T23:28:44.929Z,7.60
2022-12-26T23:31:32.528Z,7.70
2022-12-26T23:34:20.550Z,7.70
2022-12-26T23:37:08.135Z,7.80
2022-12-26T23:39:55.729Z,7.80
2022-12-26T23:42:43.810Z,7.80
2022-12-26T23:45:31.325Z,7.90
2022-12-26T23:48:18.952Z,7.90
2022-12-26T23:51:08.365Z,7.90
2022-12-26T23:53:56.063Z,8.00
2022-12-26T23:56:43.647Z,8.10
2022-12-26T23:59:31.302Z,8.30
